createdAt,value
2023-01-29T00:00:21.975Z,-0.30
2023-01-29T00:02:48.727Z,-0.30
2023-01-29T00:05:28.832Z,-0.30
2023-01-29T00:07:56.584Z,-0.30
2023-01-29T00:10:25.204Z,-0.30
2023-01-29T00:12:51.999Z,-0.30
2023-01-29T00:15:20.889Z,-0.30
2023-01-29T00:17:47.665Z,-0.30
2023-01-29T00:20:14.875Z,-0.30
2023-01-29T00:22:41.659Z,-0.30
2023-01-29T00:25:09.122Z,-0.30
2023-01-29T00:27:35.764Z,-0.30
2023-01-29T00:30:19.349Z,-0.30
2023-01-29T00:32:47.349Z,-0.30
2023-01-29T00:35:13.945Z,-0.30
2023-01-29T00:37:40.760Z,-0.30
2023-01-29T00:40:08.100Z,-0.30
2023-01-29T00:42:53.379Z,-0.30
2023-01-29T00:45:20.212Z,-0.30
2023-01-29T00:47:47.300Z,-0.40
2023-01-29T00:50:14.405Z,-0.40
2023-01-29T00:52:41.703Z,-0.30
2023-01-29T00:55:10.399Z,-0.30
2023-01-29T00:57:37.701Z,-0.40
2023-01-29T01:00:07.235Z,-0.40
2023-01-29T01:02:52.555Z,-0.40
2023-01-29T01:05:19.742Z,-0.40
2023-01-29T01:07:52.688Z,-0.40
2023-01-29T01:10:22.285Z,-0.40
2023-01-29T01:12:58.288Z,-0.40
2023-01-29T01:15:28.608Z,-0.40
2023-01-29T01:17:57.343Z,-0.40
2023-01-29T01:20:25.395Z,-0.40
2023-01-29T01:22:54.290Z,-0.40
2023-01-29T01:25:22.649Z,-0.40
2023-01-29T01:27:53.304Z,-0.40
2023-01-29T01:30:20.058Z,-0.50
2023-01-29T01:32:46.701Z,-0.50
2023-01-29T01:35:16.499Z,-0.50
2023-01-29T01:37:43.449Z,-0.50
2023-01-29T01:40:19.462Z,-0.50
2023-01-29T01:42:51.387Z,-0.50
2023-01-29T01:45:25.826Z,-0.50
2023-01-29T01:48:04.717Z,-0.50
2023-01-29T01:50:39.919Z,-0.50
2023-01-29T01:53:10.864Z,-0.50
2023-01-29T01:55:43.306Z,-0.50
2023-01-29T01:58:15.731Z,-0.50
2023-01-29T02:00:42.727Z,-0.50
2023-01-29T02:03:28.596Z,-0.50
2023-01-29T02:06:17.182Z,-0.50
2023-01-29T02:09:17.797Z,-0.60
2023-01-29T02:11:45.068Z,-0.50
2023-01-29T02:14:12.147Z,-0.60
2023-01-29T02:16:38.987Z,-0.60
2023-01-29T02:19:15.377Z,-0.60
2023-01-29T02:21:44.907Z,-0.60
2023-01-29T02:24:43.816Z,-0.60
2023-01-29T02:27:19.605Z,-0.50
2023-01-29T02:30:03.570Z,-0.50
2023-01-29T02:32:41.285Z,-0.60
2023-01-29T02:35:32.735Z,-0.60
2023-01-29T02:38:12.917Z,-0.50
2023-01-29T02:40:48.705Z,-0.60
2023-01-29T02:43:25.051Z,-0.60
2023-01-29T02:46:01.363Z,-0.50
2023-01-29T02:48:39.722Z,-0.60
2023-01-29T02:51:13.837Z,-0.60
2023-01-29T02:54:06.413Z,-0.60
2023-01-29T02:56:45.616Z,-0.70
2023-01-29T02:59:21.970Z,-0.70
2023-01-29T03:01:54.428Z,-0.80
2023-01-29T03:04:29.330Z,-0.80
2023-01-29T03:07:03.063Z,-0.80
2023-01-29T03:09:46.429Z,-0.70
2023-01-29T03:12:33.819Z,-0.70
2023-01-29T03:15:16.554Z,-0.70
2023-01-29T03:18:05.506Z,-0.70
2023-01-29T03:20:41.339Z,-0.80
2023-01-29T03:23:23.786Z,-0.80
2023-01-29T03:26:13.467Z,-0.80
2023-01-29T03:29:01.631Z,-0.80
2023-01-29T03:31:48.661Z,-0.70
2023-01-29T03:34:24.130Z,-0.70
2023-01-29T03:36:59.055Z,-0.70
2023-01-29T03:39:28.561Z,-0.70
2023-01-29T03:42:08.728Z,-0.70
2023-01-29T03:45:02.130Z,-0.70
2023-01-29T03:47:35.200Z,-0.60
2023-01-29T03:50:19.251Z,-0.60
2023-01-29T03:53:00.805Z,-0.60
2023-01-29T03:55:55.390Z,-0.60
2023-01-29T03:58:43.313Z,-0.70
2023-01-29T04:01:16.970Z,-0.70
2023-01-29T04:03:56.288Z,-0.70
2023-01-29T04:06:27.372Z,-0.80
2023-01-29T04:08:53.936Z,-0.80
2023-01-29T04:11:23.344Z,-0.80
2023-01-29T04:13:51.582Z,-0.80
2023-01-29T04:16:23.771Z,-0.80
2023-01-29T04:18:50.837Z,-0.80
2023-01-29T04:21:18.547Z,-0.80
2023-01-29T04:23:45.197Z,-0.80
2023-01-29T04:26:42.401Z,-0.80
2023-01-29T04:29:43.544Z,-0.80
2023-01-29T04:32:32.364Z,-0.80
2023-01-29T04:35:26.679Z,-0.80
2023-01-29T04:37:58.121Z,-0.70
2023-01-29T04:40:40.869Z,-0.70
2023-01-29T04:43:38.566Z,-0.70
2023-01-29T04:46:25.161Z,-0.60
2023-01-29T04:49:06.811Z,-0.60
2023-01-29T04:52:15.575Z,-0.60
2023-01-29T04:55:35.940Z,-0.60
2023-01-29T04:58:33.148Z,-0.60
2023-01-29T05:01:01.397Z,-0.60
2023-01-29T05:03:30.364Z,-0.60
2023-01-29T05:05:59.761Z,-0.60
2023-01-29T05:08:28.243Z,-0.60
2023-01-29T05:10:58.074Z,-0.60
2023-01-29T05:13:26.689Z,-0.60
2023-01-29T05:15:56.133Z,-0.80
2023-01-29T05:18:23.257Z,-0.80
2023-01-29T05:20:50.544Z,-0.70
2023-01-29T05:23:18.969Z,-0.70
2023-01-29T05:25:47.172Z,-0.70
2023-01-29T05:28:16.625Z,-0.70
2023-01-29T05:30:49.014Z,-0.70
2023-01-29T05:33:26.221Z,-0.70
2023-01-29T05:35:53.600Z,-0.70
2023-01-29T05:38:21.072Z,-0.70
2023-01-29T05:40:48.111Z,-0.70
2023-01-29T05:43:15.814Z,-0.60
2023-01-29T05:45:42.611Z,-0.60
2023-01-29T05:48:09.447Z,-0.60
2023-01-29T05:50:36.068Z,-0.60
2023-01-29T05:53:02.773Z,-0.60
2023-01-29T05:55:29.653Z,-0.60
2023-01-29T05:57:56.494Z,-0.60
2023-01-29T06:00:23.569Z,-0.60
2023-01-29T06:02:50.706Z,-0.60
2023-01-29T06:05:17.531Z,-0.70
2023-01-29T06:07:45.354Z,-0.70
2023-01-29T06:10:17.499Z,-0.80
2023-01-29T06:12:44.660Z,-0.80
2023-01-29T06:15:12.233Z,-0.80
2023-01-29T06:17:39.067Z,-0.80
2023-01-29T06:20:06.413Z,-0.80
2023-01-29T06:22:33.829Z,-0.80
2023-01-29T06:25:00.517Z,-0.80
2023-01-29T06:27:27.277Z,-0.70
2023-01-29T06:29:53.896Z,-0.70
2023-01-29T06:32:20.577Z,-0.70
2023-01-29T06:34:49.600Z,-0.80
2023-01-29T06:37:16.437Z,-0.80
2023-01-29T06:39:43.119Z,-0.80
2023-01-29T06:42:11.085Z,-0.80
2023-01-29T06:44:37.722Z,-0.80
2023-01-29T06:47:04.423Z,-0.90
2023-01-29T06:49:31.193Z,-0.90
2023-01-29T06:51:57.983Z,-0.90
2023-01-29T06:54:24.630Z,-0.90
2023-01-29T06:56:52.200Z,-0.90
2023-01-29T06:59:18.863Z,-0.90
2023-01-29T07:01:45.765Z,-0.90
2023-01-29T07:04:12.526Z,-0.90
2023-01-29T07:06:39.921Z,-1.00
2023-01-29T07:09:06.629Z,-0.90
2023-01-29T07:11:34.989Z,-1.00
2023-01-29T07:14:01.626Z,-1.00
2023-01-29T07:16:28.320Z,-0.90
2023-01-29T07:18:55.044Z,-0.90
2023-01-29T07:21:21.770Z,-0.80
2023-01-29T07:23:48.444Z,-0.80
2023-01-29T07:26:15.404Z,-0.80
2023-01-29T07:28:42.098Z,-0.80
2023-01-29T07:31:12.609Z,-0.80
2023-01-29T07:33:39.334Z,-0.70
2023-01-29T07:36:10.355Z,-0.70
2023-01-29T07:38:37.065Z,-0.80
2023-01-29T07:41:03.720Z,-0.80
2023-01-29T07:43:30.510Z,-0.80
2023-01-29T07:46:00.940Z,-0.80
2023-01-29T07:48:27.633Z,-0.80
2023-01-29T07:50:55.966Z,-0.70
2023-01-29T07:53:23.209Z,-0.80
2023-01-29T07:55:50.061Z,-0.70
2023-01-29T07:58:16.682Z,-0.70
2023-01-29T08:00:43.707Z,-0.70
2023-01-29T08:03:19.980Z,-0.70
2023-01-29T08:05:47.098Z,-0.70
2023-01-29T08:08:14.294Z,-0.70
2023-01-29T08:10:42.060Z,-0.70
2023-01-29T08:13:09.676Z,-0.70
2023-01-29T08:15:39.078Z,-0.60
2023-01-29T08:18:06.032Z,-0.60
2023-01-29T08:20:32.755Z,-0.50
2023-01-29T08:23:14.601Z,-0.50
2023-01-29T08:25:41.412Z,-0.40
2023-01-29T08:28:08.757Z,-0.40
2023-01-29T08:30:36.097Z,-0.40
2023-01-29T08:33:04.557Z,-0.30
2023-01-29T08:35:31.348Z,-0.30
2023-01-29T08:38:01.084Z,-0.30
2023-01-29T08:40:29.708Z,-0.20
2023-01-29T08:43:05.561Z,-0.20
2023-01-29T08:45:35.253Z,-0.30
2023-01-29T08:48:02.338Z,-0.20
2023-01-29T08:50:30.635Z,-0.20
2023-01-29T08:52:59.045Z,-0.10
2023-01-29T08:55:26.282Z,0.00
2023-01-29T08:57:52.915Z,0.10
2023-01-29T09:00:20.053Z,0.10
2023-01-29T09:02:47.047Z,0.20
2023-01-29T09:05:13.955Z,0.30
2023-01-29T09:07:40.602Z,0.30
2023-01-29T09:10:08.094Z,0.30
2023-01-29T09:12:34.704Z,0.40
2023-01-29T09:15:01.472Z,0.40
2023-01-29T09:17:28.091Z,0.50
2023-01-29T09:19:54.738Z,0.50
2023-01-29T09:22:21.388Z,0.40
2023-01-29T09:24:48.035Z,0.40
2023-01-29T09:27:14.714Z,0.40
2023-01-29T09:29:41.571Z,0.40
2023-01-29T09:32:08.165Z,0.30
2023-01-29T09:34:35.227Z,0.30
2023-01-29T09:37:01.837Z,0.30
2023-01-29T09:39:28.628Z,0.30
2023-01-29T09:42:04.151Z,0.30
2023-01-29T09:44:54.983Z,0.30
2023-01-29T09:47:24.926Z,0.30
2023-01-29T09:49:58.563Z,0.20
2023-01-29T09:52:27.559Z,0.20
2023-01-29T09:55:12.440Z,0.30
2023-01-29T09:57:50.044Z,0.30
2023-01-29T10:00:29.113Z,0.20
2023-01-29T10:03:10.468Z,0.30
2023-01-29T10:05:52.843Z,0.40
2023-01-29T10:09:13.144Z,0.50
2023-01-29T10:12:07.427Z,0.60
2023-01-29T10:14:42.451Z,0.60
2023-01-29T10:17:40.567Z,0.60
2023-01-29T10:20:38.076Z,0.50
2023-01-29T10:23:18.449Z,0.60
2023-01-29T10:25:47.295Z,0.70
2023-01-29T10:28:46.347Z,0.70
2023-01-29T10:31:25.256Z,0.60
2023-01-29T10:34:02.142Z,0.60
2023-01-29T10:36:45.179Z,0.60
2023-01-29T10:39:20.568Z,0.60
2023-01-29T10:42:12.499Z,0.70
2023-01-29T10:45:04.363Z,0.70
2023-01-29T10:47:47.204Z,0.70
2023-01-29T10:50:43.087Z,0.60
2023-01-29T10:53:38.736Z,0.50
2023-01-29T10:56:22.339Z,0.50
2023-01-29T10:59:10.141Z,0.60
2023-01-29T11:01:36.974Z,0.60
2023-01-29T11:04:08.537Z,0.70
2023-01-29T11:06:36.380Z,0.30
2023-01-29T11:09:21.046Z,0.20
2023-01-29T11:11:57.491Z,0.20
2023-01-29T11:14:31.674Z,0.20
2023-01-29T11:16:58.938Z,0.30
2023-01-29T11:19:41.425Z,0.40
2023-01-29T11:22:15.734Z,0.60
2023-01-29T11:24:43.057Z,0.60
2023-01-29T11:27:22.176Z,0.80
2023-01-29T11:29:49.797Z,0.90
2023-01-29T11:32:19.253Z,0.90
2023-01-29T11:35:00.853Z,0.90
2023-01-29T11:37:47.802Z,0.90
2023-01-29T11:40:34.074Z,0.90
2023-01-29T11:43:23.450Z,1.00
2023-01-29T11:45:53.594Z,1.00
2023-01-29T11:48:23.063Z,0.90
2023-01-29T11:50:56.648Z,0.60
2023-01-29T11:53:51.111Z,0.40
2023-01-29T11:56:31.686Z,0.40
2023-01-29T11:58:58.910Z,0.30
2023-01-29T12:01:43.912Z,0.20
2023-01-29T12:04:23.652Z,0.30
2023-01-29T12:06:53.040Z,0.40
2023-01-29T12:09:22.995Z,0.30
2023-01-29T12:11:49.667Z,0.30
2023-01-29T12:14:30.210Z,0.40
2023-01-29T12:17:06.384Z,0.50
2023-01-29T12:19:46.418Z,0.60
2023-01-29T12:22:33.306Z,0.70
2023-01-29T12:25:28.731Z,0.70
2023-01-29T12:28:09.554Z,0.70
2023-01-29T12:30:46.188Z,0.60
2023-01-29T12:33:36.670Z,0.50
2023-01-29T12:36:11.003Z,0.50
2023-01-29T12:38:37.837Z,0.70
2023-01-29T12:41:13.171Z,0.80
2023-01-29T12:43:46.571Z,1.00
2023-01-29T12:46:34.543Z,1.10
2023-01-29T12:49:05.172Z,1.20
2023-01-29T12:51:39.849Z,1.30
2023-01-29T12:54:08.826Z,1.10
2023-01-29T12:56:49.202Z,0.80
2023-01-29T12:59:15.824Z,0.50
2023-01-29T13:01:54.526Z,0.50
2023-01-29T13:04:46.937Z,0.40
2023-01-29T13:07:24.816Z,0.50
2023-01-29T13:09:57.677Z,0.50
2023-01-29T13:12:24.909Z,0.50
2023-01-29T13:14:51.460Z,0.60
2023-01-29T13:17:23.707Z,0.60
2023-01-29T13:19:52.439Z,0.60
2023-01-29T13:22:34.510Z,0.70
2023-01-29T13:25:05.865Z,0.70
2023-01-29T13:27:35.032Z,0.60
2023-01-29T13:30:02.254Z,0.50
2023-01-29T13:32:34.878Z,0.50
2023-01-29T13:35:12.483Z,0.50
2023-01-29T13:37:47.933Z,0.70
2023-01-29T13:40:25.587Z,0.80
2023-01-29T13:42:54.238Z,0.90
2023-01-29T13:45:34.065Z,0.80
2023-01-29T13:48:31.935Z,0.70
2023-01-29T13:51:03.973Z,0.60
2023-01-29T13:53:37.795Z,0.60
2023-01-29T13:56:30.082Z,0.70
2023-01-29T13:58:58.109Z,0.80
2023-01-29T14:01:46.902Z,0.70
2023-01-29T14:04:21.623Z,0.70
2023-01-29T14:06:55.704Z,0.70
2023-01-29T14:10:14.451Z,0.80
2023-01-29T14:12:42.616Z,0.70
2023-01-29T14:15:20.673Z,0.70
2023-01-29T14:18:00.900Z,0.70
2023-01-29T14:20:50.550Z,0.70
2023-01-29T14:23:46.587Z,0.70
2023-01-29T14:26:45.134Z,0.70
2023-01-29T14:29:34.734Z,0.60
2023-01-29T14:32:21.319Z,0.50
2023-01-29T14:34:51.352Z,0.50
2023-01-29T14:37:20.708Z,0.50
2023-01-29T14:39:52.100Z,0.60
2023-01-29T14:42:27.240Z,0.60
2023-01-29T14:45:08.410Z,0.60
2023-01-29T14:47:34.980Z,0.60
2023-01-29T14:50:22.636Z,0.70
2023-01-29T14:52:52.562Z,0.70
2023-01-29T14:55:29.894Z,0.70
2023-01-29T14:57:58.242Z,0.80
2023-01-29T15:00:31.088Z,0.90
2023-01-29T15:03:01.891Z,1.00
2023-01-29T15:05:32.462Z,1.00
2023-01-29T15:08:13.223Z,0.90
2023-01-29T15:10:45.691Z,0.90
2023-01-29T15:13:48.387Z,0.80
2023-01-29T15:16:20.173Z,0.80
2023-01-29T15:18:51.026Z,0.70
2023-01-29T15:21:19.190Z,0.70
2023-01-29T15:23:50.418Z,0.80
2023-01-29T15:26:24.751Z,0.80
2023-01-29T15:29:04.287Z,0.80
2023-01-29T15:31:31.934Z,0.80
2023-01-29T15:34:04.763Z,0.70
2023-01-29T15:36:32.108Z,0.50
2023-01-29T15:39:28.527Z,0.50
2023-01-29T15:42:23.492Z,0.50
2023-01-29T15:44:50.182Z,0.40
2023-01-29T15:47:16.982Z,0.40
2023-01-29T15:49:46.446Z,0.40
2023-01-29T15:52:20.261Z,0.30
2023-01-29T15:54:47.423Z,0.40
2023-01-29T15:57:29.274Z,0.30
2023-01-29T15:59:58.846Z,0.30
2023-01-29T16:02:34.736Z,0.30
2023-01-29T16:05:02.497Z,0.30
2023-01-29T16:07:30.085Z,0.20
2023-01-29T16:09:57.495Z,0.10
2023-01-29T16:12:24.393Z,0.10
2023-01-29T16:14:51.981Z,0.10
2023-01-29T16:17:29.993Z,0.10
2023-01-29T16:19:57.985Z,0.10
2023-01-29T16:22:36.115Z,0.00
2023-01-29T16:25:12.438Z,0.00
2023-01-29T16:27:43.123Z,0.00
2023-01-29T16:30:14.160Z,0.00
2023-01-29T16:32:40.845Z,0.00
2023-01-29T16:35:15.228Z,0.00
2023-01-29T16:37:46.656Z,0.00
2023-01-29T16:40:33.106Z,-0.10
2023-01-29T16:43:28.428Z,-0.10
2023-01-29T16:46:24.310Z,-0.10
2023-01-29T16:48:51.726Z,-0.10
2023-01-29T16:51:31.765Z,-0.10
2023-01-29T16:54:17.300Z,-0.10
2023-01-29T16:56:49.116Z,-0.20
2023-01-29T16:59:26.752Z,-0.20
2023-01-29T17:01:55.689Z,-0.20
2023-01-29T17:04:22.736Z,-0.30
2023-01-29T17:06:58.643Z,-0.30
2023-01-29T17:09:31.234Z,-0.40
2023-01-29T17:12:01.641Z,-0.50
2023-01-29T17:14:31.752Z,-0.50
2023-01-29T17:17:06.174Z,-0.50
2023-01-29T17:19:33.062Z,-0.40
2023-01-29T17:22:00.057Z,-0.40
2023-01-29T17:24:26.855Z,-0.40
2023-01-29T17:26:54.132Z,-0.30
2023-01-29T17:29:31.179Z,-0.40
2023-01-29T17:32:00.044Z,-0.40
2023-01-29T17:34:26.970Z,-0.50
2023-01-29T17:36:53.575Z,-0.50
2023-01-29T17:39:22.424Z,-0.50
2023-01-29T17:41:57.766Z,-0.50
2023-01-29T17:44:28.283Z,-0.50
2023-01-29T17:46:54.984Z,-0.60
2023-01-29T17:49:27.507Z,-0.60
2023-01-29T17:51:55.442Z,-0.50
2023-01-29T17:54:22.986Z,-0.50
2023-01-29T17:56:50.584Z,-0.50
2023-01-29T17:59:23.126Z,-0.50
2023-01-29T18:01:50.851Z,-0.50
2023-01-29T18:04:17.968Z,-0.50
2023-01-29T18:06:47.235Z,-0.50
2023-01-29T18:09:15.609Z,-0.50
2023-01-29T18:11:42.811Z,-0.50
2023-01-29T18:14:13.883Z,-0.50
2023-01-29T18:16:42.873Z,-0.60
2023-01-29T18:19:27.181Z,-0.60
2023-01-29T18:21:54.235Z,-0.60
2023-01-29T18:24:21.016Z,-0.60
2023-01-29T18:26:48.838Z,-0.70
2023-01-29T18:29:15.531Z,-0.60
2023-01-29T18:31:42.326Z,-0.60
2023-01-29T18:34:08.978Z,-0.60
2023-01-29T18:36:35.634Z,-0.70
2023-01-29T18:39:02.279Z,-0.60
2023-01-29T18:41:28.922Z,-0.70
2023-01-29T18:43:55.556Z,-0.70
2023-01-29T18:46:24.209Z,-0.70
2023-01-29T18:48:50.990Z,-0.70
2023-01-29T18:51:17.617Z,-0.70
2023-01-29T18:53:48.555Z,-0.70
2023-01-29T18:56:15.223Z,-0.60
2023-01-29T18:58:41.852Z,-0.70
2023-01-29T19:01:11.874Z,-0.70
2023-01-29T19:03:40.486Z,-0.70
2023-01-29T19:06:09.259Z,-0.70
2023-01-29T19:08:36.582Z,-0.70
2023-01-29T19:11:03.936Z,-0.70
2023-01-29T19:13:31.991Z,-0.70
2023-01-29T19:15:58.890Z,-0.70
2023-01-29T19:18:26.123Z,-0.80
2023-01-29T19:20:53.456Z,-0.80
2023-01-29T19:23:20.773Z,-0.80
2023-01-29T19:25:47.597Z,-0.80
2023-01-29T19:28:14.589Z,-0.80
2023-01-29T19:30:41.329Z,-0.80
2023-01-29T19:33:09.822Z,-0.80
2023-01-29T19:35:36.676Z,-0.80
2023-01-29T19:38:04.731Z,-0.80
2023-01-29T19:40:31.642Z,-0.80
2023-01-29T19:42:58.796Z,-1.00
2023-01-29T19:45:48.967Z,-1.00
2023-01-29T19:48:14.289Z,-1.20
2023-01-29T19:50:40.953Z,-1.20
2023-01-29T19:53:07.557Z,-1.30
2023-01-29T19:55:34.301Z,-1.40
2023-01-29T19:58:00.929Z,-1.50
2023-01-29T20:00:27.674Z,-1.50
2023-01-29T20:02:54.375Z,-1.60
2023-01-29T20:05:21.176Z,-1.60
2023-01-29T20:07:49.816Z,-1.70
2023-01-29T20:10:17.289Z,-1.70
2023-01-29T20:12:45.153Z,-1.70
2023-01-29T20:15:13.575Z,-1.70
2023-01-29T20:17:40.752Z,-1.70
2023-01-29T20:20:08.602Z,-1.70
2023-01-29T20:22:35.503Z,-1.80
2023-01-29T20:25:02.264Z,-1.80
2023-01-29T20:27:29.199Z,-1.90
2023-01-29T20:29:55.989Z,-1.90
2023-01-29T20:32:22.772Z,-2.00
2023-01-29T20:34:52.062Z,-2.00
2023-01-29T20:37:19.595Z,-2.10
2023-01-29T20:39:46.676Z,-2.10
2023-01-29T20:42:13.620Z,-2.20
2023-01-29T20:44:40.371Z,-2.20
2023-01-29T20:47:07.095Z,-2.20
2023-01-29T20:49:33.878Z,-2.20
2023-01-29T20:52:00.624Z,-2.20
2023-01-29T20:54:29.358Z,-2.10
2023-01-29T20:56:56.289Z,-2.10
2023-01-29T20:59:23.323Z,-2.10
2023-01-29T21:01:50.071Z,-2.20
2023-01-29T21:04:16.855Z,-2.20
2023-01-29T21:06:43.728Z,-2.20
2023-01-29T21:09:10.394Z,-2.30
2023-01-29T21:11:37.150Z,-2.30
2023-01-29T21:14:04.275Z,-2.30
2023-01-29T21:16:31.232Z,-2.40
2023-01-29T21:18:58.666Z,-2.40
2023-01-29T21:21:26.860Z,-2.50
2023-01-29T21:23:53.793Z,-2.50
2023-01-29T21:26:21.133Z,-2.50
2023-01-29T21:28:47.908Z,-2.50
2023-01-29T21:31:16.478Z,-2.60
2023-01-29T21:33:43.892Z,-2.60
2023-01-29T21:36:11.276Z,-2.60
2023-01-29T21:38:38.225Z,-2.70
2023-01-29T21:41:08.664Z,-2.70
2023-01-29T21:43:35.664Z,-2.70
2023-01-29T21:46:11.735Z,-2.70
2023-01-29T21:48:39.708Z,-2.80
2023-01-29T21:51:07.065Z,-2.80
2023-01-29T21:53:34.140Z,-2.90
2023-01-29T21:56:02.512Z,-2.80
2023-01-29T21:58:29.820Z,-2.80
2023-01-29T22:00:57.188Z,-2.80
2023-01-29T22:03:47.085Z,-2.80
2023-01-29T22:06:14.739Z,-2.80
2023-01-29T22:08:41.579Z,-2.80
2023-01-29T22:11:09.241Z,-2.80
2023-01-29T22:13:36.216Z,-2.90
2023-01-29T22:16:02.903Z,-2.90
2023-01-29T22:18:29.607Z,-2.90
2023-01-29T22:20:57.237Z,-3.00
2023-01-29T22:23:24.674Z,-3.00
2023-01-29T22:25:51.401Z,-3.00
2023-01-29T22:28:18.776Z,-3.00
2023-01-29T22:30:45.535Z,-3.10
2023-01-29T22:33:12.908Z,-3.10
2023-01-29T22:35:39.696Z,-3.10
2023-01-29T22:38:06.574Z,-3.10
2023-01-29T22:40:33.327Z,-3.20
2023-01-29T22:43:00.025Z,-3.20
2023-01-29T22:45:27.274Z,-3.20
2023-01-29T22:47:53.974Z,-3.10
2023-01-29T22:50:20.851Z,-3.20
2023-01-29T22:52:53.472Z,-3.20
2023-01-29T22:55:20.263Z,-3.30
2023-01-29T22:57:49.803Z,-3.30
2023-01-29T23:00:17.331Z,-3.30
2023-01-29T23:02:46.662Z,-3.30
2023-01-29T23:05:13.545Z,-3.40
2023-01-29T23:07:40.202Z,-3.40
2023-01-29T23:10:07.783Z,-3.40
2023-01-29T23:12:34.746Z,-3.40
2023-01-29T23:15:01.561Z,-3.30
2023-01-29T23:17:28.274Z,-3.30
2023-01-29T23:19:54.960Z,-3.40
2023-01-29T23:22:21.622Z,-3.40
2023-01-29T23:24:48.444Z,-3.40
2023-01-29T23:27:15.287Z,-3.40
2023-01-29T23:29:47.227Z,-3.40
2023-01-29T23:32:17.069Z,-3.40
2023-01-29T23:34:43.793Z,-3.40
2023-01-29T23:37:10.532Z,-3.40
2023-01-29T23:39:37.366Z,-3.40
2023-01-29T23:42:04.687Z,-3.50
2023-01-29T23:44:31.461Z,-3.60
2023-01-29T23:46:58.409Z,-3.60
2023-01-29T23:49:25.229Z,-3.60
2023-01-29T23:51:51.972Z,-3.60
2023-01-29T23:54:18.844Z,-3.70
2023-01-29T23:56:45.784Z,-3.70
2023-01-29T23:59:13.074Z,-3.70
